createdAt,value
2018-10-11T00:10:35.632Z,12.80
2018-10-11T00:31:15.624Z,11.53
2018-10-11T00:51:54.889Z,12.50
2018-10-11T01:12:43.630Z,11.70
2018-10-11T01:33:23.559Z,11.73
2018-10-11T01:54:04.975Z,12.40
2018-10-11T02:14:42.089Z,11.33
2018-10-11T02:35:24.430Z,11.53
2018-10-11T02:56:08.992Z,10.30
2018-10-11T03:16:50.947Z,11.97
2018-10-11T03:37:31.443Z,10.33
2018-10-11T03:58:06.410Z,10.43
2018-10-11T04:18:50.891Z,13.10
2018-10-11T04:39:31.401Z,11.27
2018-10-11T05:00:10.676Z,11.80
2018-10-11T05:20:49.617Z,10.80
2018-10-11T05:41:28.879Z,11.30
2018-10-11T06:02:05.077Z,10.87
2018-10-11T06:22:50.113Z,11.37
2018-10-11T06:43:32.822Z,12.57
2018-10-11T07:04:15.159Z,14.90
2018-10-11T07:24:52.277Z,15.57
2018-10-11T07:45:30.620Z,16.47
2018-10-11T08:06:12.962Z,17.27
2018-10-11T08:26:52.554Z,16.47
2018-10-11T08:47:32.744Z,16.27
2018-10-11T09:08:10.113Z,15.60
2018-10-11T09:28:52.452Z,19.33
2018-10-11T09:49:32.621Z,17.17
2018-10-11T10:10:13.468Z,18.03
2018-10-11T10:30:57.957Z,16.70
2018-10-11T10:51:37.226Z,13.93
2018-10-11T11:12:13.418Z,12.93
2018-10-11T11:32:57.908Z,12.80
2018-10-11T11:53:35.023Z,11.30
2018-10-11T12:14:12.720Z,10.77
2018-10-11T12:34:53.552Z,13.30
2018-10-11T12:55:32.817Z,12.10
2018-10-11T13:16:09.935Z,11.13
2018-10-11T13:36:45.204Z,9.97
2018-10-11T13:57:26.847Z,8.93
2018-10-11T14:18:09.284Z,6.23
2018-10-11T14:38:46.073Z,7.33
2018-10-11T14:59:29.069Z,6.53
2018-10-11T15:20:08.600Z,7.73
2018-10-11T15:40:49.108Z,7.70
2018-10-11T16:01:28.591Z,7.47
2018-10-11T16:22:08.548Z,9.47
2018-10-11T16:42:43.818Z,8.60
2018-10-11T17:03:23.084Z,9.50
2018-10-11T17:24:04.620Z,8.73
2018-10-11T17:44:44.058Z,9.93
2018-10-11T18:05:20.886Z,9.60
2018-10-11T18:25:57.086Z,10.37
2018-10-11T18:46:39.427Z,12.50
2018-10-11T19:07:20.833Z,12.40
2018-10-11T19:28:01.329Z,11.70
2018-10-11T19:48:43.983Z,12.63
2018-10-11T20:09:23.547Z,12.60
2018-10-11T20:30:05.114Z,11.57
2018-10-11T20:50:44.234Z,10.70
2018-10-11T21:11:23.663Z,10.70
2018-10-11T21:32:00.614Z,12.13
2018-10-11T21:52:39.941Z,11.97
2018-10-11T22:13:27.134Z,11.43
2018-10-11T22:34:05.477Z,11.57
2018-10-11T22:54:45.664Z,11.10
2018-10-11T23:15:26.412Z,11.30
2018-10-11T23:36:06.349Z,11.80
2018-10-11T23:56:47.762Z,11.47
